sensor_id;sensor_type;location;lat;lon;timestamp;P1;durP1;ratioP1;P2;durP2;ratioP2
31732;SDS011;18312;51.486;7.144;2024-03-23T00:53:40;1223.35;;;999.90;;
31732;SDS011;18312;51.486;7.144;2024-03-23T00:56:06;1225.07;;;999.90;;
31732;SDS011;18312;51.486;7.144;2024-03-23T00:58:33;1223.15;;;999.90;;
31732;SDS011;18312;51.486;7.144;2024-03-23T01:01:00;1219.73;;;999.90;;
31732;SDS011;18312;51.486;7.144;2024-03-23T01:03:28;1222.00;;;999.90;;
31732;SDS011;18312;51.486;7.144;2024-03-23T01:05:54;1221.85;;;999.90;;
31732;SDS011;18312;51.486;7.144;2024-03-23T01:08:25;1222.32;;;999.90;;
31732;SDS011;18312;51.486;7.144;2024-03-23T01:10:57;1220.53;;;999.90;;
31732;SDS011;18312;51.486;7.144;2024-03-23T01:13:25;1224.00;;;999.90;;
31732;SDS011;18312;51.486;7.144;2024-03-23T01:15:51;1222.07;;;999.90;;
31732;SDS011;18312;51.486;7.144;2024-03-23T01:18:19;1222.40;;;999.90;;
31732;SDS011;18312;51.486;7.144;2024-03-23T01:20:45;1218.13;;;999.90;;
31732;SDS011;18312;51.486;7.144;2024-03-23T01:23:12;1221.20;;;999.90;;
31732;SDS011;18312;51.486;7.144;2024-03-23T01:25:42;1218.22;;;999.90;;
31732;SDS011;18312;51.486;7.144;2024-03-23T01:28:09;1221.35;;;999.90;;
31732;SDS011;18312;51.486;7.144;2024-03-23T01:30:35;1217.13;;;999.90;;
31732;SDS011;18312;51.486;7.144;2024-03-23T01:33:02;1216.93;;;999.90;;
31732;SDS011;18312;51.486;7.144;2024-03-23T01:35:28;1221.80;;;999.90;;
31732;SDS011;18312;51.486;7.144;2024-03-23T01:37:54;1220.28;;;999.90;;
31732;SDS011;18312;51.486;7.144;2024-03-23T01:40:20;1215.40;;;999.90;;
31732;SDS011;18312;51.486;7.144;2024-03-23T01:42:58;1218.78;;;999.90;;
31732;SDS011;18312;51.486;7.144;2024-03-23T01:45:27;1217.47;;;999.90;;
31732;SDS011;18312;51.486;7.144;2024-03-23T01:47:54;1213.07;;;999.90;;
31732;SDS011;18312;51.486;7.144;2024-03-23T01:50:20;1212.80;;;999.90;;
31732;SDS011;18312;51.486;7.144;2024-03-23T01:52:48;1212.20;;;999.90;;
31732;SDS011;18312;51.486;7.144;2024-03-23T01:55:14;1210.55;;;999.90;;
31732;SDS011;18312;51.486;7.144;2024-03-23T01:57:41;1206.37;;;999.90;;
31732;SDS011;18312;51.486;7.144;2024-03-23T02:00:08;1208.70;;;999.90;;
31732;SDS011;18312;51.486;7.144;2024-03-23T02:02:40;1208.63;;;999.90;;
31732;SDS011;18312;51.486;7.144;2024-03-23T02:05:07;1211.60;;;999.90;;
31732;SDS011;18312;51.486;7.144;2024-03-23T02:07:34;1204.60;;;999.90;;
31732;SDS011;18312;51.486;7.144;2024-03-23T02:10:00;1205.47;;;999.90;;
31732;SDS011;18312;51.486;7.144;2024-03-23T02:12:27;1206.82;;;999.90;;
31732;SDS011;18312;51.486;7.144;2024-03-23T02:14:56;1208.70;;;999.90;;
31732;SDS011;18312;51.486;7.144;2024-03-23T02:17:24;1207.63;;;999.90;;
31732;SDS011;18312;51.486;7.144;2024-03-23T02:19:50;1207.53;;;999.90;;
31732;SDS011;18312;51.486;7.144;2024-03-23T02:22:16;1208.70;;;999.90;;
31732;SDS011;18312;51.486;7.144;2024-03-23T02:24:44;1208.57;;;999.90;;
31732;SDS011;18312;51.486;7.144;2024-03-23T02:27:11;1204.35;;;999.90;;
31732;SDS011;18312;51.486;7.144;2024-03-23T02:29:36;1204.90;;;999.90;;
31732;SDS011;18312;51.486;7.144;2024-03-23T02:32:04;1205.00;;;999.90;;
31732;SDS011;18312;51.486;7.144;2024-03-23T02:34:29;1207.05;;;999.90;;
31732;SDS011;18312;51.486;7.144;2024-03-23T02:36:57;1207.93;;;999.90;;
31732;SDS011;18312;51.486;7.144;2024-03-23T02:39:23;1204.53;;;999.90;;
31732;SDS011;18312;51.486;7.144;2024-03-23T02:41:51;1200.53;;;999.90;;
31732;SDS011;18312;51.486;7.144;2024-03-23T02:44:16;1205.07;;;999.90;;
31732;SDS011;18312;51.486;7.144;2024-03-23T02:46:43;1205.18;;;999.90;;
31732;SDS011;18312;51.486;7.144;2024-03-23T02:49:09;1203.10;;;999.90;;
31732;SDS011;18312;51.486;7.144;2024-03-23T02:51:36;1204.85;;;999.90;;
31732;SDS011;18312;51.486;7.144;2024-03-23T02:54:01;1207.10;;;999.90;;
31732;SDS011;18312;51.486;7.144;2024-03-23T02:56:28;1207.30;;;999.90;;
31732;SDS011;18312;51.486;7.144;2024-03-23T02:58:56;1201.43;;;999.90;;
31732;SDS011;18312;51.486;7.144;2024-03-23T03:01:22;1205.22;;;999.90;;
31732;SDS011;18312;51.486;7.144;2024-03-23T03:03:48;1205.65;;;999.90;;
31732;SDS011;18312;51.486;7.144;2024-03-23T03:06:22;1203.95;;;999.90;;
31732;SDS011;18312;51.486;7.144;2024-03-23T03:08:48;1205.68;;;999.90;;
31732;SDS011;18312;51.486;7.144;2024-03-23T03:11:15;1208.32;;;999.90;;
31732;SDS011;18312;51.486;7.144;2024-03-23T03:13:42;1201.28;;;999.90;;
31732;SDS011;18312;51.486;7.144;2024-03-23T03:16:09;1199.70;;;999.90;;
31732;SDS011;18312;51.486;7.144;2024-03-23T03:18:36;1200.33;;;999.90;;
31732;SDS011;18312;51.486;7.144;2024-03-23T03:21:03;1201.13;;;999.90;;
31732;SDS011;18312;51.486;7.144;2024-03-23T03:23:30;1202.25;;;999.90;;
31732;SDS011;18312;51.486;7.144;2024-03-23T03:25:56;1201.93;;;999.90;;
31732;SDS011;18312;51.486;7.144;2024-03-23T03:28:23;1198.50;;;999.90;;
31732;SDS011;18312;51.486;7.144;2024-03-23T03:30:49;1197.30;;;999.90;;
31732;SDS011;18312;51.486;7.144;2024-03-23T03:33:17;1198.82;;;999.90;;
31732;SDS011;18312;51.486;7.144;2024-03-23T03:35:43;1198.30;;;999.90;;
31732;SDS011;18312;51.486;7.144;2024-03-23T03:38:10;1195.97;;;999.90;;
31732;SDS011;18312;51.486;7.144;2024-03-23T03:40:36;1198.32;;;999.90;;
31732;SDS011;18312;51.486;7.144;2024-03-23T03:43:03;1193.87;;;999.90;;
31732;SDS011;18312;51.486;7.144;2024-03-23T03:45:29;1196.60;;;999.90;;
31732;SDS011;18312;51.486;7.144;2024-03-23T03:47:55;1196.22;;;999.90;;
31732;SDS011;18312;51.486;7.144;2024-03-23T03:50:22;1198.53;;;999.90;;
31732;SDS011;18312;51.486;7.144;2024-03-23T03:52:50;1194.00;;;999.90;;
31732;SDS011;18312;51.486;7.144;2024-03-23T03:55:16;1197.18;;;999.90;;
31732;SDS011;18312;51.486;7.144;2024-03-23T03:57:42;1197.38;;;999.90;;
31732;SDS011;18312;51.486;7.144;2024-03-23T04:00:09;1194.63;;;999.90;;
31732;SDS011;18312;51.486;7.144;2024-03-23T04:02:37;1198.32;;;999.90;;
31732;SDS011;18312;51.486;7.144;2024-03-23T04:05:03;1197.68;;;999.90;;
31732;SDS011;18312;51.486;7.144;2024-03-23T04:07:31;1198.22;;;999.90;;
31732;SDS011;18312;51.486;7.144;2024-03-23T04:09:58;1199.53;;;999.90;;
31732;SDS011;18312;51.486;7.144;2024-03-23T04:12:24;1197.05;;;999.90;;
31732;SDS011;18312;51.486;7.144;2024-03-23T04:14:50;1197.53;;;999.90;;
31732;SDS011;18312;51.486;7.144;2024-03-23T04:17:16;1198.90;;;999.90;;
31732;SDS011;18312;51.486;7.144;2024-03-23T04:19:43;1196.10;;;999.90;;
31732;SDS011;18312;51.486;7.144;2024-03-23T04:22:09;1198.25;;;999.90;;
31732;SDS011;18312;51.486;7.144;2024-03-23T04:24:38;1197.82;;;999.90;;
31732;SDS011;18312;51.486;7.144;2024-03-23T04:27:03;1198.65;;;999.90;;
31732;SDS011;18312;51.486;7.144;2024-03-23T04:29:31;1195.87;;;999.90;;
31732;SDS011;18312;51.486;7.144;2024-03-23T04:31:56;1195.20;;;999.90;;
31732;SDS011;18312;51.486;7.144;2024-03-23T04:34:23;1191.88;;;999.90;;
31732;SDS011;18312;51.486;7.144;2024-03-23T04:36:49;1191.47;;;999.90;;
31732;SDS011;18312;51.486;7.144;2024-03-23T04:39:15;1194.20;;;999.90;;
31732;SDS011;18312;51.486;7.144;2024-03-23T04:41:44;1193.00;;;999.90;;
31732;SDS011;18312;51.486;7.144;2024-03-23T04:44:10;1194.07;;;999.90;;
31732;SDS011;18312;51.486;7.144;2024-03-23T04:46:37;1194.80;;;999.90;;
31732;SDS011;18312;51.486;7.144;2024-03-23T04:49:07;1189.93;;;999.90;;
31732;SDS011;18312;51.486;7.144;2024-03-23T04:51:35;1189.95;;;999.90;;
31732;SDS011;18312;51.486;7.144;2024-03-23T04:54:03;1189.07;;;999.90;;
31732;SDS011;18312;51.486;7.144;2024-03-23T04:56:30;1192.20;;;999.90;;
31732;SDS011;18312;51.486;7.144;2024-03-23T04:58:58;1187.82;;;999.90;;
31732;SDS011;18312;51.486;7.144;2024-03-23T05:01:26;1187.53;;;999.90;;
31732;SDS011;18312;51.486;7.144;2024-03-23T05:03:52;1188.78;;;999.90;;
31732;SDS011;18312;51.486;7.144;2024-03-23T05:06:19;1188.05;;;999.90;;
31732;SDS011;18312;51.486;7.144;2024-03-23T05:08:45;1190.20;;;999.90;;
31732;SDS011;18312;51.486;7.144;2024-03-23T05:11:12;1187.07;;;999.90;;
31732;SDS011;18312;51.486;7.144;2024-03-23T05:13:38;1191.68;;;999.90;;
31732;SDS011;18312;51.486;7.144;2024-03-23T05:16:06;1186.25;;;999.90;;
31732;SDS011;18312;51.486;7.144;2024-03-23T05:18:33;1187.93;;;999.90;;
31732;SDS011;18312;51.486;7.144;2024-03-23T05:21:00;1184.32;;;999.90;;
31732;SDS011;18312;51.486;7.144;2024-03-23T05:23:26;1187.47;;;999.90;;
31732;SDS011;18312;51.486;7.144;2024-03-23T05:25:53;1184.93;;;999.90;;
31732;SDS011;18312;51.486;7.144;2024-03-23T05:28:19;1187.75;;;999.90;;
31732;SDS011;18312;51.486;7.144;2024-03-23T05:30:49;1189.18;;;999.90;;
31732;SDS011;18312;51.486;7.144;2024-03-23T05:33:17;1189.25;;;999.90;;
31732;SDS011;18312;51.486;7.144;2024-03-23T05:35:44;1195.82;;;999.90;;
31732;SDS011;18312;51.486;7.144;2024-03-23T05:38:10;1190.40;;;999.90;;
31732;SDS011;18312;51.486;7.144;2024-03-23T05:40:36;1195.25;;;999.90;;
31732;SDS011;18312;51.486;7.144;2024-03-23T05:43:05;1190.78;;;999.90;;
31732;SDS011;18312;51.486;7.144;2024-03-23T05:45:34;1194.68;;;999.90;;
31732;SDS011;18312;51.486;7.144;2024-03-23T05:47:59;1191.20;;;999.90;;
31732;SDS011;18312;51.486;7.144;2024-03-23T05:50:28;1193.57;;;999.90;;
31732;SDS011;18312;51.486;7.144;2024-03-23T05:52:53;1190.40;;;999.90;;
31732;SDS011;18312;51.486;7.144;2024-03-23T05:55:20;1192.63;;;999.90;;
31732;SDS011;18312;51.486;7.144;2024-03-23T05:57:46;1190.63;;;999.90;;
31732;SDS011;18312;51.486;7.144;2024-03-23T06:00:13;1191.53;;;999.90;;
31732;SDS011;18312;51.486;7.144;2024-03-23T06:02:41;1191.63;;;999.90;;
31732;SDS011;18312;51.486;7.144;2024-03-23T06:05:09;1190.95;;;999.90;;
31732;SDS011;18312;51.486;7.144;2024-03-23T06:07:36;1194.00;;;999.90;;
31732;SDS011;18312;51.486;7.144;2024-03-23T06:10:04;1189.95;;;999.90;;
31732;SDS011;18312;51.486;7.144;2024-03-23T06:12:30;1192.47;;;999.90;;
31732;SDS011;18312;51.486;7.144;2024-03-23T06:14:57;1192.47;;;999.90;;
31732;SDS011;18312;51.486;7.144;2024-03-23T06:17:23;1191.13;;;999.90;;
31732;SDS011;18312;51.486;7.144;2024-03-23T06:19:49;1190.43;;;999.90;;
31732;SDS011;18312;51.486;7.144;2024-03-23T06:22:15;1192.32;;;999.90;;
31732;SDS011;18312;51.486;7.144;2024-03-23T06:24:43;1192.43;;;999.90;;
31732;SDS011;18312;51.486;7.144;2024-03-23T06:27:09;1194.53;;;999.90;;
31732;SDS011;18312;51.486;7.144;2024-03-23T06:29:36;1194.43;;;999.90;;
31732;SDS011;18312;51.486;7.144;2024-03-23T06:32:02;1196.38;;;999.90;;
31732;SDS011;18312;51.486;7.144;2024-03-23T06:34:29;1193.32;;;999.90;;
31732;SDS011;18312;51.486;7.144;2024-03-23T06:36:55;1190.85;;;999.90;;
31732;SDS011;18312;51.486;7.144;2024-03-23T06:39:22;1191.72;;;999.90;;
31732;SDS011;18312;51.486;7.144;2024-03-23T06:41:52;1195.83;;;999.90;;
31732;SDS011;18312;51.486;7.144;2024-03-23T06:44:19;1195.30;;;999.90;;
31732;SDS011;18312;51.486;7.144;2024-03-23T06:46:46;1194.72;;;999.90;;
31732;SDS011;18312;51.486;7.144;2024-03-23T06:49:12;1197.82;;;999.90;;
31732;SDS011;18312;51.486;7.144;2024-03-23T06:51:39;1205.70;;;999.90;;
31732;SDS011;18312;51.486;7.144;2024-03-23T06:54:05;1207.57;;;999.90;;
31732;SDS011;18312;51.486;7.144;2024-03-23T06:56:32;1213.28;;;999.90;;
31732;SDS011;18312;51.486;7.144;2024-03-23T06:58:59;1219.33;;;999.90;;
31732;SDS011;18312;51.486;7.144;2024-03-23T07:01:26;1218.53;;;999.90;;
31732;SDS011;18312;51.486;7.144;2024-03-23T07:03:54;1217.50;;;999.90;;
31732;SDS011;18312;51.486;7.144;2024-03-23T07:06:21;1219.82;;;999.90;;
31732;SDS011;18312;51.486;7.144;2024-03-23T07:08:47;1223.50;;;999.90;;
31732;SDS011;18312;51.486;7.144;2024-03-23T07:11:18;1227.43;;;999.90;;
31732;SDS011;18312;51.486;7.144;2024-03-23T07:13:45;1236.25;;;999.90;;
31732;SDS011;18312;51.486;7.144;2024-03-23T07:16:13;1244.30;;;999.90;;
31732;SDS011;18312;51.486;7.144;2024-03-23T07:18:39;1255.03;;;999.90;;
31732;SDS011;18312;51.486;7.144;2024-03-23T07:21:06;1260.50;;;999.90;;
31732;SDS011;18312;51.486;7.144;2024-03-23T07:23:32;1265.17;;;999.90;;
31732;SDS011;18312;51.486;7.144;2024-03-23T07:25:59;1275.43;;;999.90;;
31732;SDS011;18312;51.486;7.144;2024-03-23T07:28:26;1276.20;;;999.90;;
31732;SDS011;18312;51.486;7.144;2024-03-23T07:31:03;1277.60;;;999.90;;
31732;SDS011;18312;51.486;7.144;2024-03-23T07:33:31;1273.00;;;999.90;;
31732;SDS011;18312;51.486;7.144;2024-03-23T07:35:58;1273.32;;;999.90;;
31732;SDS011;18312;51.486;7.144;2024-03-23T07:38:25;1274.13;;;999.90;;
31732;SDS011;18312;51.486;7.144;2024-03-23T07:41:02;1280.73;;;999.90;;
31732;SDS011;18312;51.486;7.144;2024-03-23T07:43:28;1289.15;;;999.90;;
31732;SDS011;18312;51.486;7.144;2024-03-23T07:45:55;1299.00;;;999.90;;
31732;SDS011;18312;51.486;7.144;2024-03-23T07:48:21;1313.97;;;999.90;;
31732;SDS011;18312;51.486;7.144;2024-03-23T07:51:00;1307.30;;;999.90;;
31732;SDS011;18312;51.486;7.144;2024-03-23T07:53:27;1296.53;;;999.90;;
31732;SDS011;18312;51.486;7.144;2024-03-23T07:55:55;1295.80;;;999.90;;
31732;SDS011;18312;51.486;7.144;2024-03-23T07:58:21;1294.15;;;999.90;;
31732;SDS011;18312;51.486;7.144;2024-03-23T08:00:49;1291.70;;;999.90;;
31732;SDS011;18312;51.486;7.144;2024-03-23T08:03:15;1289.18;;;999.90;;
31732;SDS011;18312;51.486;7.144;2024-03-23T08:05:42;1287.93;;;999.90;;
31732;SDS011;18312;51.486;7.144;2024-03-23T08:08:09;1287.53;;;999.90;;
31732;SDS011;18312;51.486;7.144;2024-03-23T08:10:37;1288.45;;;999.90;;
31732;SDS011;18312;51.486;7.144;2024-03-23T08:13:05;1293.90;;;999.90;;
31732;SDS011;18312;51.486;7.144;2024-03-23T08:15:35;1301.30;;;999.90;;
31732;SDS011;18312;51.486;7.144;2024-03-23T08:18:02;1306.47;;;999.90;;
31732;SDS011;18312;51.486;7.144;2024-03-23T08:20:30;1307.32;;;999.90;;
31732;SDS011;18312;51.486;7.144;2024-03-23T08:22:55;1308.73;;;999.90;;
31732;SDS011;18312;51.486;7.144;2024-03-23T08:25:24;1307.90;;;999.90;;
31732;SDS011;18312;51.486;7.144;2024-03-23T08:27:49;1306.65;;;999.90;;
31732;SDS011;18312;51.486;7.144;2024-03-23T08:30:17;1305.72;;;999.90;;
31732;SDS011;18312;51.486;7.144;2024-03-23T08:32:43;1305.10;;;999.90;;
31732;SDS011;18312;51.486;7.144;2024-03-23T08:35:11;1310.40;;;999.90;;
31732;SDS011;18312;51.486;7.144;2024-03-23T08:37:37;1306.32;;;999.90;;
31732;SDS011;18312;51.486;7.144;2024-03-23T08:40:04;1312.78;;;999.90;;
31732;SDS011;18312;51.486;7.144;2024-03-23T08:42:32;1317.30;;;999.90;;
31732;SDS011;18312;51.486;7.144;2024-03-23T08:44:58;1310.65;;;999.90;;
31732;SDS011;18312;51.486;7.144;2024-03-23T08:47:24;1310.77;;;999.90;;
31732;SDS011;18312;51.486;7.144;2024-03-23T08:49:51;1313.90;;;999.90;;
31732;SDS011;18312;51.486;7.144;2024-03-23T08:52:17;1320.50;;;999.90;;
31732;SDS011;18312;51.486;7.144;2024-03-23T08:54:44;1334.18;;;999.90;;
31732;SDS011;18312;51.486;7.144;2024-03-23T08:57:11;1326.43;;;999.90;;
31732;SDS011;18312;51.486;7.144;2024-03-23T08:59:41;1320.65;;;999.90;;
31732;SDS011;18312;51.486;7.144;2024-03-23T09:02:07;1316.68;;;999.90;;
31732;SDS011;18312;51.486;7.144;2024-03-23T09:04:34;1308.63;;;999.90;;
31732;SDS011;18312;51.486;7.144;2024-03-23T09:07:05;1310.03;;;999.90;;
31732;SDS011;18312;51.486;7.144;2024-03-23T09:09:31;1301.65;;;999.90;;
31732;SDS011;18312;51.486;7.144;2024-03-23T09:11:59;1295.60;;;999.90;;
31732;SDS011;18312;51.486;7.144;2024-03-23T09:14:24;1293.93;;;999.90;;
31732;SDS011;18312;51.486;7.144;2024-03-23T09:16:53;1286.93;;;999.90;;
31732;SDS011;18312;51.486;7.144;2024-03-23T09:19:19;1281.05;;;999.90;;
31732;SDS011;18312;51.486;7.144;2024-03-23T09:21:45;1277.40;;;999.90;;
31732;SDS011;18312;51.486;7.144;2024-03-23T09:24:11;1276.95;;;999.90;;
31732;SDS011;18312;51.486;7.144;2024-03-23T09:26:38;1271.22;;;999.90;;
31732;SDS011;18312;51.486;7.144;2024-03-23T09:29:04;1271.53;;;999.90;;
31732;SDS011;18312;51.486;7.144;2024-03-23T09:31:32;1278.30;;;999.90;;
31732;SDS011;18312;51.486;7.144;2024-03-23T09:34:00;1277.53;;;999.90;;
31732;SDS011;18312;51.486;7.144;2024-03-23T09:36:26;1279.03;;;999.90;;
31732;SDS011;18312;51.486;7.144;2024-03-23T09:39:02;1282.47;;;999.90;;
31732;SDS011;18312;51.486;7.144;2024-03-23T09:41:30;1283.15;;;999.90;;
31732;SDS011;18312;51.486;7.144;2024-03-23T09:43:58;1285.78;;;999.90;;
31732;SDS011;18312;51.486;7.144;2024-03-23T09:46:26;1293.90;;;999.90;;
31732;SDS011;18312;51.486;7.144;2024-03-23T09:48:53;1295.60;;;999.90;;
31732;SDS011;18312;51.486;7.144;2024-03-23T09:51:24;1310.18;;;999.90;;
31732;SDS011;18312;51.486;7.144;2024-03-23T09:53:50;1314.45;;;999.90;;
31732;SDS011;18312;51.486;7.144;2024-03-23T09:56:18;1328.15;;;999.90;;
31732;SDS011;18312;51.486;7.144;2024-03-23T09:58:44;1321.22;;;999.90;;
31732;SDS011;18312;51.486;7.144;2024-03-23T10:01:10;1323.72;;;999.90;;
31732;SDS011;18312;51.486;7.144;2024-03-23T10:03:42;1331.30;;;999.90;;
31732;SDS011;18312;51.486;7.144;2024-03-23T10:06:09;1329.80;;;999.90;;
31732;SDS011;18312;51.486;7.144;2024-03-23T10:08:37;1325.55;;;999.90;;
31732;SDS011;18312;51.486;7.144;2024-03-23T10:11:13;1323.90;;;999.90;;
31732;SDS011;18312;51.486;7.144;2024-03-23T10:13:41;1311.93;;;999.90;;
31732;SDS011;18312;51.486;7.144;2024-03-23T10:16:09;1317.43;;;999.90;;
31732;SDS011;18312;51.486;7.144;2024-03-23T10:18:40;1316.55;;;999.90;;
31732;SDS011;18312;51.486;7.144;2024-03-23T10:21:07;1315.53;;;999.90;;
31732;SDS011;18312;51.486;7.144;2024-03-23T10:23:44;1317.03;;;999.90;;
31732;SDS011;18312;51.486;7.144;2024-03-23T10:26:18;1311.70;;;999.90;;
31732;SDS011;18312;51.486;7.144;2024-03-23T10:28:56;1311.65;;;999.90;;
31732;SDS011;18312;51.486;7.144;2024-03-23T10:31:26;1309.55;;;999.90;;
31732;SDS011;18312;51.486;7.144;2024-03-23T10:33:51;1305.28;;;999.90;;
31732;SDS011;18312;51.486;7.144;2024-03-23T10:36:20;1302.03;;;999.90;;
31732;SDS011;18312;51.486;7.144;2024-03-23T10:38:47;1299.40;;;999.90;;
31732;SDS011;18312;51.486;7.144;2024-03-23T10:41:16;1300.25;;;999.90;;
31732;SDS011;18312;51.486;7.144;2024-03-23T10:43:45;1298.28;;;999.90;;
31732;SDS011;18312;51.486;7.144;2024-03-23T10:46:13;1299.68;;;999.90;;
31732;SDS011;18312;51.486;7.144;2024-03-23T10:48:39;1301.38;;;999.90;;
31732;SDS011;18312;51.486;7.144;2024-03-23T10:51:06;1298.97;;;999.90;;
31732;SDS011;18312;51.486;7.144;2024-03-23T10:53:33;1296.45;;;999.90;;
31732;SDS011;18312;51.486;7.144;2024-03-23T10:56:03;1296.40;;;999.90;;
31732;SDS011;18312;51.486;7.144;2024-03-23T10:58:31;1295.78;;;999.90;;
31732;SDS011;18312;51.486;7.144;2024-03-23T11:01:04;1294.35;;;999.90;;
31732;SDS011;18312;51.486;7.144;2024-03-23T11:03:31;1288.85;;;999.90;;
31732;SDS011;18312;51.486;7.144;2024-03-23T11:05:59;1281.00;;;999.90;;
31732;SDS011;18312;51.486;7.144;2024-03-23T11:08:32;1273.75;;;999.90;;
31732;SDS011;18312;51.486;7.144;2024-03-23T11:11:18;1262.35;;;999.90;;
31732;SDS011;18312;51.486;7.144;2024-03-23T11:13:44;1253.00;;;999.90;;
31732;SDS011;18312;51.486;7.144;2024-03-23T11:16:14;1245.80;;;999.90;;
31732;SDS011;18312;51.486;7.144;2024-03-23T11:18:41;1244.73;;;999.90;;
31732;SDS011;18312;51.486;7.144;2024-03-23T11:21:08;1239.47;;;999.90;;
31732;SDS011;18312;51.486;7.144;2024-03-23T11:23:34;1235.90;;;999.90;;
31732;SDS011;18312;51.486;7.144;2024-03-23T11:26:01;1233.30;;;999.90;;
31732;SDS011;18312;51.486;7.144;2024-03-23T11:28:36;1239.15;;;999.90;;
31732;SDS011;18312;51.486;7.144;2024-03-23T11:31:09;1244.43;;;999.90;;
31732;SDS011;18312;51.486;7.144;2024-03-23T11:33:35;1248.80;;;999.90;;
31732;SDS011;18312;51.486;7.144;2024-03-23T11:36:03;1255.07;;;999.90;;
31732;SDS011;18312;51.486;7.144;2024-03-23T11:38:30;1256.20;;;999.90;;
31732;SDS011;18312;51.486;7.144;2024-03-23T11:41:03;1259.53;;;999.90;;
31732;SDS011;18312;51.486;7.144;2024-03-23T11:43:31;1263.00;;;999.90;;
31732;SDS011;18312;51.486;7.144;2024-03-23T11:45:59;1267.03;;;999.90;;
31732;SDS011;18312;51.486;7.144;2024-03-23T11:48:29;1272.05;;;999.90;;
31732;SDS011;18312;51.486;7.144;2024-03-23T11:50:58;1274.05;;;999.90;;
31732;SDS011;18312;51.486;7.144;2024-03-23T11:53:24;1278.25;;;999.90;;
31732;SDS011;18312;51.486;7.144;2024-03-23T11:55:53;1279.60;;;999.90;;
31732;SDS011;18312;51.486;7.144;2024-03-23T11:58:21;1279.57;;;999.90;;
31732;SDS011;18312;51.486;7.144;2024-03-23T12:00:49;1285.65;;;999.90;;
31732;SDS011;18312;51.486;7.144;2024-03-23T12:03:18;1283.85;;;999.90;;
31732;SDS011;18312;51.486;7.144;2024-03-23T12:05:50;1291.13;;;999.90;;
31732;SDS011;18312;51.486;7.144;2024-03-23T12:08:18;1306.25;;;999.90;;
31732;SDS011;18312;51.486;7.144;2024-03-23T12:10:48;1302.35;;;999.90;;
31732;SDS011;18312;51.486;7.144;2024-03-23T12:13:16;1303.10;;;999.90;;
31732;SDS011;18312;51.486;7.144;2024-03-23T12:15:46;1299.35;;;999.90;;
31732;SDS011;18312;51.486;7.144;2024-03-23T12:18:14;1306.03;;;999.90;;
31732;SDS011;18312;51.486;7.144;2024-03-23T12:20:42;1303.72;;;999.90;;
31732;SDS011;18312;51.486;7.144;2024-03-23T12:23:09;1297.20;;;999.90;;
31732;SDS011;18312;51.486;7.144;2024-03-23T12:25:36;1308.43;;;999.90;;
31732;SDS011;18312;51.486;7.144;2024-03-23T12:28:03;1302.25;;;999.90;;
31732;SDS011;18312;51.486;7.144;2024-03-23T12:30:31;1296.50;;;999.90;;
31732;SDS011;18312;51.486;7.144;2024-03-23T12:32:58;1292.83;;;999.90;;
31732;SDS011;18312;51.486;7.144;2024-03-23T12:35:25;1293.10;;;999.90;;
31732;SDS011;18312;51.486;7.144;2024-03-23T12:37:52;1290.33;;;999.90;;
31732;SDS011;18312;51.486;7.144;2024-03-23T12:40:21;1290.72;;;999.90;;
31732;SDS011;18312;51.486;7.144;2024-03-23T12:42:47;1287.25;;;999.90;;
31732;SDS011;18312;51.486;7.144;2024-03-23T12:45:14;1293.85;;;999.90;;
31732;SDS011;18312;51.486;7.144;2024-03-23T12:47:40;1296.27;;;999.90;;
31732;SDS011;18312;51.486;7.144;2024-03-23T12:50:07;1296.35;;;999.90;;
31732;SDS011;18312;51.486;7.144;2024-03-23T12:52:34;1301.15;;;999.90;;
31732;SDS011;18312;51.486;7.144;2024-03-23T12:55:03;1301.07;;;999.90;;
31732;SDS011;18312;51.486;7.144;2024-03-23T12:57:30;1306.60;;;999.90;;
31732;SDS011;18312;51.486;7.144;2024-03-23T12:59:58;1307.70;;;999.90;;
31732;SDS011;18312;51.486;7.144;2024-03-23T13:02:24;1309.75;;;999.90;;
31732;SDS011;18312;51.486;7.144;2024-03-23T13:04:51;1317.53;;;999.90;;
31732;SDS011;18312;51.486;7.144;2024-03-23T13:07:18;1308.75;;;999.90;;
31732;SDS011;18312;51.486;7.144;2024-03-23T13:09:46;1305.57;;;999.90;;
31732;SDS011;18312;51.486;7.144;2024-03-23T13:12:17;1312.72;;;999.90;;
31732;SDS011;18312;51.486;7.144;2024-03-23T13:14:45;1303.43;;;999.90;;
31732;SDS011;18312;51.486;7.144;2024-03-23T13:17:11;1289.40;;;999.90;;
31732;SDS011;18312;51.486;7.144;2024-03-23T13:19:38;1283.43;;;999.90;;
31732;SDS011;18312;51.486;7.144;2024-03-23T13:22:04;1271.83;;;999.90;;
31732;SDS011;18312;51.486;7.144;2024-03-23T13:24:31;1264.15;;;999.90;;
31732;SDS011;18312;51.486;7.144;2024-03-23T13:26:57;1255.35;;;999.90;;
31732;SDS011;18312;51.486;7.144;2024-03-23T13:29:28;1253.07;;;999.90;;
31732;SDS011;18312;51.486;7.144;2024-03-23T13:31:54;1249.25;;;999.90;;
31732;SDS011;18312;51.486;7.144;2024-03-23T13:34:21;1250.75;;;999.90;;
31732;SDS011;18312;51.486;7.144;2024-03-23T13:36:47;1247.60;;;999.90;;
31732;SDS011;18312;51.486;7.144;2024-03-23T13:39:14;1243.90;;;999.90;;
31732;SDS011;18312;51.486;7.144;2024-03-23T13:41:41;1242.15;;;999.90;;
31732;SDS011;18312;51.486;7.144;2024-03-23T13:44:08;1242.90;;;999.90;;
31732;SDS011;18312;51.486;7.144;2024-03-23T13:46:37;1243.47;;;999.90;;
31732;SDS011;18312;51.486;7.144;2024-03-23T13:49:04;1241.40;;;999.90;;
31732;SDS011;18312;51.486;7.144;2024-03-23T13:51:30;1241.60;;;999.90;;
31732;SDS011;18312;51.486;7.144;2024-03-23T13:54:00;1243.45;;;999.90;;
31732;SDS011;18312;51.486;7.144;2024-03-23T13:56:28;1253.20;;;999.90;;
31732;SDS011;18312;51.486;7.144;2024-03-23T13:58:55;1258.28;;;999.90;;
31732;SDS011;18312;51.486;7.144;2024-03-23T14:01:21;1258.93;;;999.90;;
31732;SDS011;18312;51.486;7.144;2024-03-23T14:03:50;1260.13;;;999.90;;
31732;SDS011;18312;51.486;7.144;2024-03-23T14:06:16;1259.47;;;999.90;;
31732;SDS011;18312;51.486;7.144;2024-03-23T14:08:43;1255.90;;;999.90;;
31732;SDS011;18312;51.486;7.144;2024-03-23T14:11:09;1256.57;;;999.90;;
31732;SDS011;18312;51.486;7.144;2024-03-23T14:13:36;1259.85;;;999.90;;
31732;SDS011;18312;51.486;7.144;2024-03-23T14:16:05;1263.55;;;999.90;;
31732;SDS011;18312;51.486;7.144;2024-03-23T14:18:32;1266.97;;;999.90;;
31732;SDS011;18312;51.486;7.144;2024-03-23T14:21:00;1270.25;;;999.90;;
31732;SDS011;18312;51.486;7.144;2024-03-23T14:23:28;1277.65;;;999.90;;
31732;SDS011;18312;51.486;7.144;2024-03-23T14:25:55;1286.78;;;999.90;;
31732;SDS011;18312;51.486;7.144;2024-03-23T14:28:22;1299.05;;;999.90;;
31732;SDS011;18312;51.486;7.144;2024-03-23T14:30:48;1299.15;;;999.90;;
31732;SDS011;18312;51.486;7.144;2024-03-23T14:33:15;1292.28;;;999.90;;
31732;SDS011;18312;51.486;7.144;2024-03-23T14:35:41;1296.47;;;999.90;;
31732;SDS011;18312;51.486;7.144;2024-03-23T14:38:10;1286.20;;;999.90;;